sensor_id;sensor_type;location;lat;lon;timestamp;temperature;humidity
43920;DHT22;29578;51.946;5.874;2022-11-15T00:02:22;7.90;89.60
43920;DHT22;29578;51.946;5.874;2022-11-15T00:04:47;7.90;89.70
43920;DHT22;29578;51.946;5.874;2022-11-15T00:07:13;7.90;89.70
43920;DHT22;29578;51.946;5.874;2022-11-15T00:09:38;8.00;89.80
43920;DHT22;29578;51.946;5.874;2022-11-15T00:12:04;8.00;89.80
43920;DHT22;29578;51.946;5.874;2022-11-15T00:14:29;7.90;89.80
43920;DHT22;29578;51.946;5.874;2022-11-15T00:16:55;8.00;89.90
43920;DHT22;29578;51.946;5.874;2022-11-15T00:19:21;8.00;89.90
43920;DHT22;29578;51.946;5.874;2022-11-15T00:21:46;8.00;90.00
43920;DHT22;29578;51.946;5.874;2022-11-15T00:24:12;8.10;90.00
43920;DHT22;29578;51.946;5.874;2022-11-15T00:26:37;8.00;90.00
43920;DHT22;29578;51.946;5.874;2022-11-15T00:29:03;8.00;90.00
43920;DHT22;29578;51.946;5.874;2022-11-15T00:31:29;8.00;90.00
43920;DHT22;29578;51.946;5.874;2022-11-15T00:33:54;8.10;90.00
43920;DHT22;29578;51.946;5.874;2022-11-15T00:36:20;8.10;90.00
43920;DHT22;29578;51.946;5.874;2022-11-15T00:38:45;8.10;90.00
43920;DHT22;29578;51.946;5.874;2022-11-15T00:41:11;8.10;90.10
43920;DHT22;29578;51.946;5.874;2022-11-15T00:43:37;8.10;90.10
43920;DHT22;29578;51.946;5.874;2022-11-15T00:46:02;8.10;90.10
43920;DHT22;29578;51.946;5.874;2022-11-15T00:48:28;8.10;90.10
43920;DHT22;29578;51.946;5.874;2022-11-15T00:50:54;8.10;90.10
43920;DHT22;29578;51.946;5.874;2022-11-15T00:53:19;8.10;90.10
43920;DHT22;29578;51.946;5.874;2022-11-15T00:55:46;8.10;90.10
43920;DHT22;29578;51.946;5.874;2022-11-15T00:58:11;8.10;90.20
43920;DHT22;29578;51.946;5.874;2022-11-15T01:00:37;8.10;90.20
43920;DHT22;29578;51.946;5.874;2022-11-15T01:03:03;8.20;90.20
43920;DHT22;29578;51.946;5.874;2022-11-15T01:05:28;8.20;90.20
43920;DHT22;29578;51.946;5.874;2022-11-15T01:07:55;8.10;90.20
43920;DHT22;29578;51.946;5.874;2022-11-15T01:10:22;8.20;90.20
43920;DHT22;29578;51.946;5.874;2022-11-15T01:12:49;8.30;90.30
43920;DHT22;29578;51.946;5.874;2022-11-15T01:15:15;8.20;90.20
43920;DHT22;29578;51.946;5.874;2022-11-15T01:17:40;8.20;90.20
43920;DHT22;29578;51.946;5.874;2022-11-15T01:20:06;8.20;90.30
43920;DHT22;29578;51.946;5.874;2022-11-15T01:22:32;8.20;90.30
43920;DHT22;29578;51.946;5.874;2022-11-15T01:24:58;8.20;90.60
43920;DHT22;29578;51.946;5.874;2022-11-15T01:27:23;8.20;90.30
43920;DHT22;29578;51.946;5.874;2022-11-15T01:29:49;8.30;90.30
43920;DHT22;29578;51.946;5.874;2022-11-15T01:32:16;8.30;90.30
43920;DHT22;29578;51.946;5.874;2022-11-15T01:34:42;8.30;90.30
43920;DHT22;29578;51.946;5.874;2022-11-15T01:37:07;8.30;90.30
43920;DHT22;29578;51.946;5.874;2022-11-15T01:39:33;8.30;90.60
43920;DHT22;29578;51.946;5.874;2022-11-15T01:41:59;8.40;90.30
43920;DHT22;29578;51.946;5.874;2022-11-15T01:44:45;8.40;90.30
43920;DHT22;29578;51.946;5.874;2022-11-15T01:47:16;8.30;90.30
43920;DHT22;29578;51.946;5.874;2022-11-15T01:49:55;8.40;90.30
43920;DHT22;29578;51.946;5.874;2022-11-15T01:52:25;8.40;90.30
43920;DHT22;29578;51.946;5.874;2022-11-15T01:54:56;8.40;90.30
43920;DHT22;29578;51.946;5.874;2022-11-15T01:57:23;8.60;90.40
43920;DHT22;29578;51.946;5.874;2022-11-15T01:59:49;8.40;90.30
43920;DHT22;29578;51.946;5.874;2022-11-15T02:02:15;8.50;90.30
43920;DHT22;29578;51.946;5.874;2022-11-15T02:04:43;8.60;90.30
43920;DHT22;29578;51.946;5.874;2022-11-15T02:07:11;8.60;90.30
43920;DHT22;29578;51.946;5.874;2022-11-15T02:09:38;8.60;90.30
43920;DHT22;29578;51.946;5.874;2022-11-15T02:12:06;8.60;90.30
43920;DHT22;29578;51.946;5.874;2022-11-15T02:14:34;8.70;90.30
43920;DHT22;29578;51.946;5.874;2022-11-15T02:20:24;8.70;90.30
43920;DHT22;29578;51.946;5.874;2022-11-15T02:23:24;8.80;90.30
43920;DHT22;29578;51.946;5.874;2022-11-15T02:26:13;8.80;90.30
43920;DHT22;29578;51.946;5.874;2022-11-15T02:31:56;8.90;90.30
43920;DHT22;29578;51.946;5.874;2022-11-15T02:40:19;9.00;90.30
43920;DHT22;29578;51.946;5.874;2022-11-15T02:42:54;9.00;90.30
43920;DHT22;29578;51.946;5.874;2022-11-15T02:45:35;9.00;90.20
43920;DHT22;29578;51.946;5.874;2022-11-15T02:48:03;9.10;90.30
43920;DHT22;29578;51.946;5.874;2022-11-15T02:50:30;9.10;90.30
43920;DHT22;29578;51.946;5.874;2022-11-15T02:52:57;9.10;90.30
43920;DHT22;29578;51.946;5.874;2022-11-15T02:55:38;9.10;90.30
43920;DHT22;29578;51.946;5.874;2022-11-15T02:58:36;9.20;90.30
43920;DHT22;29578;51.946;5.874;2022-11-15T03:01:28;9.20;90.30
43920;DHT22;29578;51.946;5.874;2022-11-15T03:04:15;9.30;90.30
43920;DHT22;29578;51.946;5.874;2022-11-15T03:06:49;9.30;90.30
43920;DHT22;29578;51.946;5.874;2022-11-15T03:09:40;9.40;90.30
43920;DHT22;29578;51.946;5.874;2022-11-15T03:12:15;9.40;90.30
43920;DHT22;29578;51.946;5.874;2022-11-15T03:14:54;9.60;90.30
43920;DHT22;29578;51.946;5.874;2022-11-15T03:17:30;9.50;90.20
43920;DHT22;29578;51.946;5.874;2022-11-15T03:19:59;9.60;90.20
43920;DHT22;29578;51.946;5.874;2022-11-15T03:22:28;9.70;90.20
43920;DHT22;29578;51.946;5.874;2022-11-15T03:24:58;9.70;90.30
43920;DHT22;29578;51.946;5.874;2022-11-15T03:27:28;9.70;90.20
43920;DHT22;29578;51.946;5.874;2022-11-15T03:30:00;9.80;90.20
43920;DHT22;29578;51.946;5.874;2022-11-15T03:32:29;9.80;90.20
43920;DHT22;29578;51.946;5.874;2022-11-15T03:35:00;9.80;90.20
43920;DHT22;29578;51.946;5.874;2022-11-15T03:37:34;9.90;90.20
43920;DHT22;29578;51.946;5.874;2022-11-15T03:40:02;10.00;90.20
43920;DHT22;29578;51.946;5.874;2022-11-15T03:45:27;10.00;90.20
43920;DHT22;29578;51.946;5.874;2022-11-15T03:48:14;10.00;90.20
43920;DHT22;29578;51.946;5.874;2022-11-15T03:50:42;10.10;90.20
43920;DHT22;29578;51.946;5.874;2022-11-15T03:53:08;10.20;90.20
43920;DHT22;29578;51.946;5.874;2022-11-15T03:55:34;10.20;90.20
43920;DHT22;29578;51.946;5.874;2022-11-15T03:58:00;10.30;90.20
43920;DHT22;29578;51.946;5.874;2022-11-15T04:00:27;10.30;90.20
43920;DHT22;29578;51.946;5.874;2022-11-15T04:02:53;10.40;90.10
43920;DHT22;29578;51.946;5.874;2022-11-15T04:05:19;10.40;90.10
43920;DHT22;29578;51.946;5.874;2022-11-15T04:07:44;10.40;90.20
43920;DHT22;29578;51.946;5.874;2022-11-15T04:10:11;10.40;90.20
43920;DHT22;29578;51.946;5.874;2022-11-15T04:12:39;10.40;90.50
43920;DHT22;29578;51.946;5.874;2022-11-15T04:15:10;10.50;90.20
43920;DHT22;29578;51.946;5.874;2022-11-15T04:17:41;10.50;90.20
43920;DHT22;29578;51.946;5.874;2022-11-15T04:20:15;10.50;90.20
43920;DHT22;29578;51.946;5.874;2022-11-15T04:22:59;10.60;90.30
43920;DHT22;29578;51.946;5.874;2022-11-15T04:25:38;10.60;90.30
43920;DHT22;29578;51.946;5.874;2022-11-15T04:28:04;10.60;90.30
43920;DHT22;29578;51.946;5.874;2022-11-15T04:30:29;10.60;90.30
43920;DHT22;29578;51.946;5.874;2022-11-15T04:32:55;10.60;90.30
43920;DHT22;29578;51.946;5.874;2022-11-15T04:35:20;10.80;90.40
43920;DHT22;29578;51.946;5.874;2022-11-15T04:37:46;10.70;90.40
43920;DHT22;29578;51.946;5.874;2022-11-15T04:40:12;10.70;90.40
43920;DHT22;29578;51.946;5.874;2022-11-15T04:42:37;10.80;90.40
43920;DHT22;29578;51.946;5.874;2022-11-15T04:45:03;10.70;90.40
43920;DHT22;29578;51.946;5.874;2022-11-15T04:47:29;10.80;90.40
43920;DHT22;29578;51.946;5.874;2022-11-15T04:49:54;10.90;90.40
43920;DHT22;29578;51.946;5.874;2022-11-15T04:52:20;10.90;90.40
43920;DHT22;29578;51.946;5.874;2022-11-15T04:54:46;10.90;90.50
43920;DHT22;29578;51.946;5.874;2022-11-15T04:57:11;10.90;90.50
43920;DHT22;29578;51.946;5.874;2022-11-15T04:59:37;10.90;90.50
43920;DHT22;29578;51.946;5.874;2022-11-15T05:02:02;10.90;90.50
43920;DHT22;29578;51.946;5.874;2022-11-15T05:04:28;10.90;90.50
43920;DHT22;29578;51.946;5.874;2022-11-15T05:06:54;11.00;90.50
43920;DHT22;29578;51.946;5.874;2022-11-15T05:09:20;10.90;90.60
43920;DHT22;29578;51.946;5.874;2022-11-15T05:11:46;10.90;90.60
43920;DHT22;29578;51.946;5.874;2022-11-15T05:14:12;11.00;90.60
43920;DHT22;29578;51.946;5.874;2022-11-15T05:16:38;11.00;90.60
43920;DHT22;29578;51.946;5.874;2022-11-15T05:19:04;11.00;90.60
43920;DHT22;29578;51.946;5.874;2022-11-15T05:21:30;11.10;90.60
43920;DHT22;29578;51.946;5.874;2022-11-15T05:23:57;11.00;90.60
43920;DHT22;29578;51.946;5.874;2022-11-15T05:26:23;11.10;90.60
43920;DHT22;29578;51.946;5.874;2022-11-15T05:28:53;11.10;90.70
43920;DHT22;29578;51.946;5.874;2022-11-15T05:31:20;11.10;90.70
43920;DHT22;29578;51.946;5.874;2022-11-15T05:33:45;11.20;90.70
43920;DHT22;29578;51.946;5.874;2022-11-15T05:36:17;11.20;90.70
43920;DHT22;29578;51.946;5.874;2022-11-15T05:38:46;11.20;90.70
43920;DHT22;29578;51.946;5.874;2022-11-15T05:41:13;11.20;90.70
43920;DHT22;29578;51.946;5.874;2022-11-15T05:43:40;11.20;90.70
43920;DHT22;29578;51.946;5.874;2022-11-15T05:46:06;11.20;90.70
43920;DHT22;29578;51.946;5.874;2022-11-15T05:48:34;11.20;90.70
43920;DHT22;29578;51.946;5.874;2022-11-15T05:51:02;11.20;90.80
43920;DHT22;29578;51.946;5.874;2022-11-15T05:53:29;11.20;90.80
43920;DHT22;29578;51.946;5.874;2022-11-15T05:55:55;11.20;90.80
43920;DHT22;29578;51.946;5.874;2022-11-15T05:58:21;11.20;90.80
43920;DHT22;29578;51.946;5.874;2022-11-15T06:00:47;11.20;90.80
43920;DHT22;29578;51.946;5.874;2022-11-15T06:03:13;11.20;90.90
43920;DHT22;29578;51.946;5.874;2022-11-15T06:05:39;11.20;90.90
43920;DHT22;29578;51.946;5.874;2022-11-15T06:08:05;11.20;90.90
43920;DHT22;29578;51.946;5.874;2022-11-15T06:10:31;11.20;90.90
43920;DHT22;29578;51.946;5.874;2022-11-15T06:12:59;11.30;91.00
43920;DHT22;29578;51.946;5.874;2022-11-15T06:15:25;11.30;91.00
43920;DHT22;29578;51.946;5.874;2022-11-15T06:17:51;11.30;91.00
43920;DHT22;29578;51.946;5.874;2022-11-15T06:20:17;11.30;91.00
43920;DHT22;29578;51.946;5.874;2022-11-15T06:22:43;11.20;91.00
43920;DHT22;29578;51.946;5.874;2022-11-15T06:25:09;11.20;91.00
43920;DHT22;29578;51.946;5.874;2022-11-15T06:27:34;11.30;91.10
43920;DHT22;29578;51.946;5.874;2022-11-15T06:30:00;11.20;91.10
43920;DHT22;29578;51.946;5.874;2022-11-15T06:32:26;11.20;91.10
43920;DHT22;29578;51.946;5.874;2022-11-15T06:34:51;11.20;91.10
43920;DHT22;29578;51.946;5.874;2022-11-15T06:37:17;11.30;91.10
43920;DHT22;29578;51.946;5.874;2022-11-15T06:39:43;11.30;91.40
43920;DHT22;29578;51.946;5.874;2022-11-15T06:42:09;11.30;91.20
43920;DHT22;29578;51.946;5.874;2022-11-15T06:44:34;11.20;91.20
43920;DHT22;29578;51.946;5.874;2022-11-15T06:47:00;11.30;91.20
43920;DHT22;29578;51.946;5.874;2022-11-15T06:49:25;11.20;91.20
43920;DHT22;29578;51.946;5.874;2022-11-15T06:51:51;11.20;91.20
43920;DHT22;29578;51.946;5.874;2022-11-15T06:54:16;11.20;91.20
43920;DHT22;29578;51.946;5.874;2022-11-15T06:56:42;11.20;91.20
43920;DHT22;29578;51.946;5.874;2022-11-15T06:59:08;11.20;91.20
43920;DHT22;29578;51.946;5.874;2022-11-15T07:01:33;11.20;91.20
43920;DHT22;29578;51.946;5.874;2022-11-15T07:03:59;11.20;91.30
43920;DHT22;29578;51.946;5.874;2022-11-15T07:06:25;11.20;91.30
43920;DHT22;29578;51.946;5.874;2022-11-15T07:08:50;11.20;91.30
43920;DHT22;29578;51.946;5.874;2022-11-15T07:11:16;11.20;91.40
43920;DHT22;29578;51.946;5.874;2022-11-15T07:13:41;11.20;91.40
43920;DHT22;29578;51.946;5.874;2022-11-15T07:16:09;11.20;91.40
43920;DHT22;29578;51.946;5.874;2022-11-15T07:18:36;11.20;91.40
43920;DHT22;29578;51.946;5.874;2022-11-15T07:21:04;11.20;91.40
43920;DHT22;29578;51.946;5.874;2022-11-15T07:23:30;11.20;91.40
43920;DHT22;29578;51.946;5.874;2022-11-15T07:25:57;11.20;91.40
43920;DHT22;29578;51.946;5.874;2022-11-15T07:28:24;11.20;91.40
43920;DHT22;29578;51.946;5.874;2022-11-15T07:30:50;11.20;91.30
43920;DHT22;29578;51.946;5.874;2022-11-15T07:33:16;11.30;91.40
43920;DHT22;29578;51.946;5.874;2022-11-15T07:35:41;11.30;91.40
43920;DHT22;29578;51.946;5.874;2022-11-15T07:38:08;11.30;91.40
43920;DHT22;29578;51.946;5.874;2022-11-15T07:40:34;11.30;91.40
43920;DHT22;29578;51.946;5.874;2022-11-15T07:43:02;11.30;91.40
43920;DHT22;29578;51.946;5.874;2022-11-15T07:45:28;11.30;91.40
43920;DHT22;29578;51.946;5.874;2022-11-15T07:47:54;11.30;91.40
43920;DHT22;29578;51.946;5.874;2022-11-15T07:50:22;11.30;91.40
43920;DHT22;29578;51.946;5.874;2022-11-15T07:52:54;11.30;91.40
43920;DHT22;29578;51.946;5.874;2022-11-15T07:55:21;11.30;91.40
43920;DHT22;29578;51.946;5.874;2022-11-15T07:57:46;11.30;91.40
43920;DHT22;29578;51.946;5.874;2022-11-15T08:00:15;11.40;91.40
43920;DHT22;29578;51.946;5.874;2022-11-15T08:02:43;11.30;91.70
43920;DHT22;29578;51.946;5.874;2022-11-15T08:05:12;11.30;91.40
43920;DHT22;29578;51.946;5.874;2022-11-15T08:07:37;11.30;91.40
43920;DHT22;29578;51.946;5.874;2022-11-15T08:10:09;11.30;91.40
43920;DHT22;29578;51.946;5.874;2022-11-15T08:12:34;11.40;91.40
43920;DHT22;29578;51.946;5.874;2022-11-15T08:15:02;11.40;91.40
43920;DHT22;29578;51.946;5.874;2022-11-15T08:17:28;11.40;91.40
43920;DHT22;29578;51.946;5.874;2022-11-15T08:19:58;11.40;91.40
43920;DHT22;29578;51.946;5.874;2022-11-15T08:22:23;11.40;91.40
43920;DHT22;29578;51.946;5.874;2022-11-15T08:24:49;11.40;91.40
43920;DHT22;29578;51.946;5.874;2022-11-15T08:27:20;11.40;91.40
43920;DHT22;29578;51.946;5.874;2022-11-15T08:29:48;11.50;91.50
43920;DHT22;29578;51.946;5.874;2022-11-15T08:32:17;11.40;91.40
43920;DHT22;29578;51.946;5.874;2022-11-15T08:34:43;11.40;91.50
43920;DHT22;29578;51.946;5.874;2022-11-15T08:37:08;11.50;91.50
43920;DHT22;29578;51.946;5.874;2022-11-15T08:39:34;11.40;91.50
43920;DHT22;29578;51.946;5.874;2022-11-15T08:42:00;11.60;91.50
43920;DHT22;29578;51.946;5.874;2022-11-15T08:44:26;11.50;91.50
43920;DHT22;29578;51.946;5.874;2022-11-15T08:46:52;11.60;91.50
43920;DHT22;29578;51.946;5.874;2022-11-15T08:49:20;11.60;91.50
43920;DHT22;29578;51.946;5.874;2022-11-15T08:51:59;11.60;91.50
43920;DHT22;29578;51.946;5.874;2022-11-15T08:54:25;11.60;91.50
43920;DHT22;29578;51.946;5.874;2022-11-15T08:56:51;11.70;91.40
43920;DHT22;29578;51.946;5.874;2022-11-15T08:59:16;11.70;91.50
43920;DHT22;29578;51.946;5.874;2022-11-15T09:01:42;11.70;91.40
43920;DHT22;29578;51.946;5.874;2022-11-15T09:04:08;11.80;91.40
43920;DHT22;29578;51.946;5.874;2022-11-15T09:06:33;11.80;91.30
43920;DHT22;29578;51.946;5.874;2022-11-15T09:09:00;11.80;91.30
43920;DHT22;29578;51.946;5.874;2022-11-15T09:11:26;11.80;91.30
43920;DHT22;29578;51.946;5.874;2022-11-15T09:13:52;11.80;91.40
43920;DHT22;29578;51.946;5.874;2022-11-15T09:16:18;11.80;91.30
43920;DHT22;29578;51.946;5.874;2022-11-15T09:18:44;11.90;91.40
43920;DHT22;29578;51.946;5.874;2022-11-15T09:21:10;11.80;91.40
43920;DHT22;29578;51.946;5.874;2022-11-15T09:23:37;11.90;91.40
43920;DHT22;29578;51.946;5.874;2022-11-15T09:26:04;11.80;91.40
43920;DHT22;29578;51.946;5.874;2022-11-15T09:28:31;11.70;91.40
43920;DHT22;29578;51.946;5.874;2022-11-15T09:30:59;11.70;91.40
43920;DHT22;29578;51.946;5.874;2022-11-15T09:33:26;11.80;91.70
43920;DHT22;29578;51.946;5.874;2022-11-15T09:35:53;11.90;91.40
43920;DHT22;29578;51.946;5.874;2022-11-15T09:38:19;11.80;91.40
43920;DHT22;29578;51.946;5.874;2022-11-15T09:40:49;11.80;91.40
43920;DHT22;29578;51.946;5.874;2022-11-15T09:43:32;11.90;91.50
43920;DHT22;29578;51.946;5.874;2022-11-15T09:46:31;12.00;91.50
43920;DHT22;29578;51.946;5.874;2022-11-15T09:49:01;11.90;91.40
43920;DHT22;29578;51.946;5.874;2022-11-15T09:51:33;12.00;91.40
43920;DHT22;29578;51.946;5.874;2022-11-15T09:54:05;12.00;91.40
43920;DHT22;29578;51.946;5.874;2022-11-15T09:56:37;12.00;91.40
43920;DHT22;29578;51.946;5.874;2022-11-15T09:59:29;12.00;91.30
43920;DHT22;29578;51.946;5.874;2022-11-15T10:04:58;12.20;91.20
43920;DHT22;29578;51.946;5.874;2022-11-15T10:07:46;12.30;91.20
43920;DHT22;29578;51.946;5.874;2022-11-15T10:10:27;12.20;91.20
43920;DHT22;29578;51.946;5.874;2022-11-15T10:12:55;12.30;91.20
43920;DHT22;29578;51.946;5.874;2022-11-15T10:15:21;12.30;91.10
43920;DHT22;29578;51.946;5.874;2022-11-15T10:18:08;12.40;91.10
43920;DHT22;29578;51.946;5.874;2022-11-15T10:20:50;12.30;91.00
43920;DHT22;29578;51.946;5.874;2022-11-15T10:23:19;12.30;91.00
43920;DHT22;29578;51.946;5.874;2022-11-15T10:25:46;12.40;91.00
43920;DHT22;29578;51.946;5.874;2022-11-15T10:28:17;12.30;91.00
43920;DHT22;29578;51.946;5.874;2022-11-15T10:30:50;12.20;91.00
43920;DHT22;29578;51.946;5.874;2022-11-15T10:33:33;12.10;91.00
43920;DHT22;29578;51.946;5.874;2022-11-15T10:36:17;12.20;91.10
43920;DHT22;29578;51.946;5.874;2022-11-15T10:38:54;12.20;91.00
43920;DHT22;29578;51.946;5.874;2022-11-15T10:41:37;12.20;91.00
43920;DHT22;29578;51.946;5.874;2022-11-15T10:44:18;12.20;91.00
43920;DHT22;29578;51.946;5.874;2022-11-15T10:46:48;12.20;90.90
43920;DHT22;29578;51.946;5.874;2022-11-15T10:49:18;12.30;90.90
43920;DHT22;29578;51.946;5.874;2022-11-15T10:51:51;12.30;90.90
43920;DHT22;29578;51.946;5.874;2022-11-15T10:54:30;12.20;90.80
43920;DHT22;29578;51.946;5.874;2022-11-15T10:57:04;12.30;90.80
43920;DHT22;29578;51.946;5.874;2022-11-15T10:59:33;12.30;90.80
43920;DHT22;29578;51.946;5.874;2022-11-15T11:01:59;12.30;90.80
43920;DHT22;29578;51.946;5.874;2022-11-15T11:04:28;12.20;90.80
43920;DHT22;29578;51.946;5.874;2022-11-15T11:06:59;12.30;90.70
43920;DHT22;29578;51.946;5.874;2022-11-15T11:09:38;12.30;90.60
43920;DHT22;29578;51.946;5.874;2022-11-15T11:12:08;12.20;90.60
43920;DHT22;29578;51.946;5.874;2022-11-15T11:14:36;12.10;90.60
43920;DHT22;29578;51.946;5.874;2022-11-15T11:17:16;12.30;90.60
43920;DHT22;29578;51.946;5.874;2022-11-15T11:19:51;12.20;90.50
43920;DHT22;29578;51.946;5.874;2022-11-15T11:22:44;12.20;90.50
43920;DHT22;29578;51.946;5.874;2022-11-15T11:25:23;12.20;90.40
43920;DHT22;29578;51.946;5.874;2022-11-15T11:28:04;12.20;90.40
43920;DHT22;29578;51.946;5.874;2022-11-15T11:30:47;12.20;90.30
43920;DHT22;29578;51.946;5.874;2022-11-15T11:33:21;12.30;90.30
43920;DHT22;29578;51.946;5.874;2022-11-15T11:36:17;12.30;90.20
43920;DHT22;29578;51.946;5.874;2022-11-15T11:44:39;12.30;90.00
43920;DHT22;29578;51.946;5.874;2022-11-15T11:47:24;12.30;89.70
43920;DHT22;29578;51.946;5.874;2022-11-15T11:49:59;12.40;89.50
43920;DHT22;29578;51.946;5.874;2022-11-15T11:52:37;12.50;89.30
43920;DHT22;29578;51.946;5.874;2022-11-15T11:55:15;12.50;88.90
43920;DHT22;29578;51.946;5.874;2022-11-15T12:00:33;12.60;88.70
43920;DHT22;29578;51.946;5.874;2022-11-15T12:03:10;12.70;88.60
43920;DHT22;29578;51.946;5.874;2022-11-15T12:05:42;12.70;88.40
43920;DHT22;29578;51.946;5.874;2022-11-15T12:08:31;12.70;88.40
43920;DHT22;29578;51.946;5.874;2022-11-15T12:13:49;12.80;88.30
43920;DHT22;29578;51.946;5.874;2022-11-15T12:16:26;12.80;88.20
43920;DHT22;29578;51.946;5.874;2022-11-15T12:18:54;12.80;88.10
43920;DHT22;29578;51.946;5.874;2022-11-15T12:24:25;12.80;88.10
43920;DHT22;29578;51.946;5.874;2022-11-15T12:29:39;12.80;88.00
43920;DHT22;29578;51.946;5.874;2022-11-15T12:32:18;12.90;87.90
43920;DHT22;29578;51.946;5.874;2022-11-15T12:34:48;12.80;87.80
43920;DHT22;29578;51.946;5.874;2022-11-15T12:37:33;12.90;87.70
43920;DHT22;29578;51.946;5.874;2022-11-15T12:40:29;12.90;87.70
43920;DHT22;29578;51.946;5.874;2022-11-15T12:46:02;12.90;87.50
43920;DHT22;29578;51.946;5.874;2022-11-15T12:48:47;12.90;87.40
43920;DHT22;29578;51.946;5.874;2022-11-15T12:57:32;13.10;87.10
43920;DHT22;29578;51.946;5.874;2022-11-15T13:00:04;13.10;86.90
43920;DHT22;29578;51.946;5.874;2022-11-15T13:02:39;13.10;86.90
43920;DHT22;29578;51.946;5.874;2022-11-15T13:08:35;13.10;87.50
43920;DHT22;29578;51.946;5.874;2022-11-15T13:14:21;13.10;86.90
43920;DHT22;29578;51.946;5.874;2022-11-15T13:17:10;13.00;86.80
43920;DHT22;29578;51.946;5.874;2022-11-15T13:20:53;13.00;87.10
43920;DHT22;29578;51.946;5.874;2022-11-15T13:24:01;13.00;87.00
43920;DHT22;29578;51.946;5.874;2022-11-15T13:26:29;12.90;87.10
43920;DHT22;29578;51.946;5.874;2022-11-15T13:29:01;12.90;86.90
43920;DHT22;29578;51.946;5.874;2022-11-15T13:31:36;12.90;87.00
43920;DHT22;29578;51.946;5.874;2022-11-15T13:34:32;12.90;87.10
43920;DHT22;29578;51.946;5.874;2022-11-15T13:36:59;12.80;87.20
43920;DHT22;29578;51.946;5.874;2022-11-15T13:39:33;12.80;87.30
43920;DHT22;29578;51.946;5.874;2022-11-15T13:41:59;12.70;87.20
43920;DHT22;29578;51.946;5.874;2022-11-15T13:44:28;12.60;87.20
43920;DHT22;29578;51.946;5.874;2022-11-15T13:47:06;12.70;87.40
43920;DHT22;29578;51.946;5.874;2022-11-15T13:49:35;12.70;87.40
43920;DHT22;29578;51.946;5.874;2022-11-15T14:17:38;12.40;87.50
43920;DHT22;29578;51.946;5.874;2022-11-15T14:25:04;12.30;87.60
43920;DHT22;29578;51.946;5.874;2022-11-15T14:47:19;12.10;87.50
43920;DHT22;29578;51.946;5.874;2022-11-15T15:12:22;12.10;87.20
43920;DHT22;29578;51.946;5.874;2022-11-15T15:15:36;11.90;87.00
43920;DHT22;29578;51.946;5.874;2022-11-15T15:22:16;12.00;87.00
43920;DHT22;29578;51.946;5.874;2022-11-15T15:24:54;12.00;87.10
43920;DHT22;29578;51.946;5.874;2022-11-15T15:27:19;12.00;87.10
43920;DHT22;29578;51.946;5.874;2022-11-15T15:29:45;11.90;87.00
43920;DHT22;29578;51.946;5.874;2022-11-15T15:48:48;11.90;86.80
43920;DHT22;29578;51.946;5.874;2022-11-15T16:06:39;11.90;86.70
43920;DHT22;29578;51.946;5.874;2022-11-15T16:09:14;11.80;86.50
43920;DHT22;29578;51.946;5.874;2022-11-15T16:11:41;11.70;86.50
43920;DHT22;29578;51.946;5.874;2022-11-15T16:14:07;11.80;86.60
43920;DHT22;29578;51.946;5.874;2022-11-15T16:16:34;11.70;86.60
43920;DHT22;29578;51.946;5.874;2022-11-15T16:18:59;11.80;86.70
43920;DHT22;29578;51.946;5.874;2022-11-15T16:21:26;11.80;86.70
43920;DHT22;29578;51.946;5.874;2022-11-15T16:23:52;11.80;86.60
43920;DHT22;29578;51.946;5.874;2022-11-15T16:26:21;11.80;86.60
43920;DHT22;29578;51.946;5.874;2022-11-15T16:28:49;11.80;86.70
43920;DHT22;29578;51.946;5.874;2022-11-15T16:31:15;11.80;86.60
43920;DHT22;29578;51.946;5.874;2022-11-15T16:33:43;11.80;86.50
43920;DHT22;29578;51.946;5.874;2022-11-15T16:36:20;11.80;86.50
43920;DHT22;29578;51.946;5.874;2022-11-15T16:38:48;11.90;86.50
43920;DHT22;29578;51.946;5.874;2022-11-15T16:41:15;11.90;86.40
43920;DHT22;29578;51.946;5.874;2022-11-15T16:43:45;11.90;86.40
43920;DHT22;29578;51.946;5.874;2022-11-15T16:46:16;11.90;86.30
43920;DHT22;29578;51.946;5.874;2022-11-15T16:48:42;11.90;86.30
43920;DHT22;29578;51.946;5.874;2022-11-15T16:51:11;11.90;86.30
43920;DHT22;29578;51.946;5.874;2022-11-15T16:53:37;11.90;86.30
43920;DHT22;29578;51.946;5.874;2022-11-15T16:56:04;12.00;86.30
43920;DHT22;29578;51.946;5.874;2022-11-15T16:58:37;11.90;86.30
43920;DHT22;29578;51.946;5.874;2022-11-15T17:01:05;12.00;86.30
43920;DHT22;29578;51.946;5.874;2022-11-15T17:03:30;11.90;86.20
43920;DHT22;29578;51.946;5.874;2022-11-15T17:06:29;12.00;86.30
43920;DHT22;29578;51.946;5.874;2022-11-15T17:08:54;12.00;86.30
43920;DHT22;29578;51.946;5.874;2022-11-15T17:11:21;11.90;86.20
43920;DHT22;29578;51.946;5.874;2022-11-15T17:13:47;11.90;86.20
43920;DHT22;29578;51.946;5.874;2022-11-15T17:16:15;11.90;86.30
43920;DHT22;29578;51.946;5.874;2022-11-15T17:18:42;11.90;86.30
43920;DHT22;29578;51.946;5.874;2022-11-15T17:21:15;11.90;86.40
43920;DHT22;29578;51.946;5.874;2022-11-15T17:23:41;11.80;86.40
43920;DHT22;29578;51.946;5.874;2022-11-15T17:26:09;11.90;86.40
43920;DHT22;29578;51.946;5.874;2022-11-15T17:28:36;11.90;86.50
43920;DHT22;29578;51.946;5.874;2022-11-15T17:31:06;11.90;86.50
43920;DHT22;29578;51.946;5.874;2022-11-15T17:33:32;11.90;86.50
43920;DHT22;29578;51.946;5.874;2022-11-15T17:35:59;11.90;86.50
43920;DHT22;29578;51.946;5.874;2022-11-15T17:38:25;12.00;86.50
43920;DHT22;29578;51.946;5.874;2022-11-15T17:41:09;12.00;86.50
43920;DHT22;29578;51.946;5.874;2022-11-15T17:43:36;12.00;86.60
43920;DHT22;29578;51.946;5.874;2022-11-15T17:46:07;11.90;86.50
43920;DHT22;29578;51.946;5.874;2022-11-15T17:48:32;11.90;86.60
43920;DHT22;29578;51.946;5.874;2022-11-15T17:51:00;11.90;86.70
43920;DHT22;29578;51.946;5.874;2022-11-15T17:53:30;11.80;86.60
43920;DHT22;29578;51.946;5.874;2022-11-15T17:56:00;11.90;86.70
43920;DHT22;29578;51.946;5.874;2022-11-15T17:58:26;11.90;86.70
43920;DHT22;29578;51.946;5.874;2022-11-15T18:00:52;11.90;86.80
43920;DHT22;29578;51.946;5.874;2022-11-15T18:03:17;12.00;86.90
43920;DHT22;29578;51.946;5.874;2022-11-15T18:05:43;11.90;86.90
43920;DHT22;29578;51.946;5.874;2022-11-15T18:08:10;11.90;86.90
43920;DHT22;29578;51.946;5.874;2022-11-15T18:10:36;11.90;87.00
43920;DHT22;29578;51.946;5.874;2022-11-15T18:13:02;11.90;87.00
43920;DHT22;29578;51.946;5.874;2022-11-15T18:15:27;11.90;87.00
43920;DHT22;29578;51.946;5.874;2022-11-15T18:17:53;11.90;87.00
43920;DHT22;29578;51.946;5.874;2022-11-15T18:20:19;11.90;87.70
43920;DHT22;29578;51.946;5.874;2022-11-15T18:22:45;11.80;87.10
43920;DHT22;29578;51.946;5.874;2022-11-15T18:25:11;11.90;87.30
43920;DHT22;29578;51.946;5.874;2022-11-15T18:27:40;11.80;87.30
43920;DHT22;29578;51.946;5.874;2022-11-15T18:30:06;11.80;87.50
43920;DHT22;29578;51.946;5.874;2022-11-15T18:32:32;11.90;87.70
43920;DHT22;29578;51.946;5.874;2022-11-15T18:34:58;11.80;87.70